createdAt,value
2023-03-21T00:01:38.150Z,73.46
2023-03-21T00:04:01.069Z,73.23
2023-03-21T00:06:24.146Z,72.97
2023-03-21T00:08:47.485Z,73.21
2023-03-21T00:11:12.315Z,73.30
2023-03-21T00:13:39.063Z,73.41
2023-03-21T00:16:20.503Z,73.50
2023-03-21T00:18:52.769Z,73.36
2023-03-21T00:24:02.125Z,73.37
2023-03-21T00:26:25.001Z,73.47
2023-03-21T00:28:47.651Z,73.60
2023-03-21T00:31:11.354Z,73.69
2023-03-21T00:33:35.410Z,73.70
2023-03-21T00:36:05.134Z,73.67
2023-03-21T00:38:29.858Z,73.75
2023-03-21T00:40:53.312Z,73.31
2023-03-21T00:43:17.787Z,73.39
2023-03-21T00:45:40.531Z,73.66
2023-03-21T00:48:04.443Z,73.82
2023-03-21T00:50:27.615Z,74.07
2023-03-21T00:52:51.422Z,73.90
2023-03-21T00:55:16.219Z,74.09
2023-03-21T00:57:39.874Z,74.34
2023-03-21T01:00:04.428Z,74.38
2023-03-21T01:02:27.627Z,74.58
2023-03-21T01:04:54.562Z,74.62
2023-03-21T01:07:17.605Z,74.98
2023-03-21T01:09:40.668Z,75.17
2023-03-21T01:12:04.442Z,75.47
2023-03-21T01:14:27.024Z,75.14
2023-03-21T01:16:51.657Z,75.08
2023-03-21T01:19:25.023Z,75.32
2023-03-21T01:21:49.316Z,75.09
2023-03-21T01:24:12.257Z,75.51
2023-03-21T01:26:37.459Z,75.90
2023-03-21T01:29:00.570Z,75.91
2023-03-21T01:31:23.842Z,75.79
2023-03-21T01:33:47.354Z,75.63
2023-03-21T01:36:17.046Z,75.79
2023-03-21T01:38:42.279Z,76.30
2023-03-21T01:41:18.668Z,76.18
2023-03-21T01:43:42.227Z,76.09
2023-03-21T01:46:11.269Z,76.36
2023-03-21T01:48:57.038Z,76.22
2023-03-21T01:51:20.986Z,76.21
2023-03-21T01:53:53.131Z,76.24
2023-03-21T01:56:29.965Z,76.79
2023-03-21T01:59:07.204Z,76.94
2023-03-21T02:02:07.276Z,76.36
2023-03-21T02:04:37.930Z,76.56
2023-03-21T02:07:17.877Z,77.00
2023-03-21T02:09:51.482Z,77.27
2023-03-21T02:12:18.860Z,77.55
2023-03-21T02:14:43.289Z,77.22
2023-03-21T02:17:34.633Z,77.52
2023-03-21T02:20:17.785Z,77.65
2023-03-21T02:23:12.654Z,77.71
2023-03-21T02:25:54.345Z,77.69
2023-03-21T02:28:28.858Z,77.52
2023-03-21T02:31:13.381Z,77.36
2023-03-21T02:33:55.033Z,77.33
2023-03-21T02:36:48.043Z,77.57
2023-03-21T02:39:18.134Z,77.71
2023-03-21T02:41:50.351Z,77.59
2023-03-21T02:44:42.216Z,77.43
2023-03-21T02:47:13.871Z,77.42
2023-03-21T02:49:42.087Z,77.00
2023-03-21T02:52:16.856Z,76.87
2023-03-21T02:54:48.885Z,76.71
2023-03-21T02:57:19.438Z,76.28
2023-03-21T02:59:53.259Z,75.95
2023-03-21T03:02:25.375Z,75.48
2023-03-21T03:04:48.308Z,75.36
2023-03-21T03:07:41.629Z,75.10
2023-03-21T03:10:35.608Z,75.22
2023-03-21T03:13:17.634Z,75.32
2023-03-21T03:16:05.438Z,75.11
2023-03-21T03:18:34.929Z,74.91
2023-03-21T03:21:19.128Z,75.12
2023-03-21T03:23:53.441Z,74.88
2023-03-21T03:26:42.802Z,74.70
2023-03-21T03:29:09.780Z,74.56
2023-03-21T03:31:38.111Z,74.76
2023-03-21T03:34:07.221Z,74.96
2023-03-21T03:36:39.130Z,74.96
2023-03-21T03:39:10.503Z,74.88
2023-03-21T03:42:05.959Z,75.10
2023-03-21T03:44:33.437Z,75.39
2023-03-21T03:47:32.938Z,75.21
2023-03-21T03:50:22.139Z,75.14
2023-03-21T03:52:57.209Z,75.31
2023-03-21T03:55:27.171Z,75.38
2023-03-21T03:57:55.388Z,75.63
2023-03-21T04:00:18.828Z,75.96
2023-03-21T04:02:45.980Z,76.73
2023-03-21T04:05:13.625Z,76.80
2023-03-21T04:07:36.724Z,77.07
2023-03-21T04:10:00.009Z,76.78
2023-03-21T04:12:24.379Z,77.39
2023-03-21T04:15:13.273Z,77.27
2023-03-21T04:17:41.556Z,78.01
2023-03-21T04:20:12.114Z,77.92
2023-03-21T04:22:46.954Z,78.04
2023-03-21T04:25:10.942Z,77.87
2023-03-21T04:27:34.338Z,77.74
2023-03-21T04:30:19.884Z,77.75
2023-03-21T04:32:54.136Z,77.59
2023-03-21T04:35:17.101Z,77.39
2023-03-21T04:37:40.262Z,77.39
2023-03-21T04:40:08.539Z,77.33
2023-03-21T04:42:31.374Z,77.18
2023-03-21T04:44:54.142Z,76.86
2023-03-21T04:47:20.364Z,76.58
2023-03-21T04:49:43.589Z,76.27
2023-03-21T04:52:08.042Z,76.28
2023-03-21T04:54:32.450Z,75.93
2023-03-21T04:56:55.315Z,75.96
2023-03-21T04:59:22.299Z,76.10
2023-03-21T05:01:45.874Z,76.24
2023-03-21T05:04:08.677Z,76.20
2023-03-21T05:06:32.261Z,76.03
2023-03-21T05:09:05.710Z,76.05
2023-03-21T05:11:31.137Z,75.79
2023-03-21T05:13:54.312Z,75.45
2023-03-21T05:16:17.075Z,75.66
2023-03-21T05:18:41.203Z,75.86
2023-03-21T05:21:13.566Z,75.77
2023-03-21T05:23:40.509Z,75.56
2023-03-21T05:26:10.916Z,73.41
2023-03-21T05:28:51.648Z,70.11
2023-03-21T05:31:16.875Z,68.60
2023-03-21T05:33:41.403Z,67.15
2023-03-21T05:36:04.730Z,67.17
2023-03-21T05:38:28.439Z,67.99
2023-03-21T05:40:52.245Z,67.89
2023-03-21T05:43:15.147Z,68.31
2023-03-21T05:45:38.293Z,66.48
2023-03-21T05:48:02.009Z,63.44
2023-03-21T05:50:29.602Z,59.84
2023-03-21T05:53:12.770Z,58.56
2023-03-21T05:55:37.066Z,57.57
2023-03-21T05:58:02.838Z,56.21
2023-03-21T06:00:27.636Z,53.63
2023-03-21T06:03:11.300Z,53.86
2023-03-21T06:05:48.180Z,55.03
2023-03-21T06:08:16.921Z,57.72
2023-03-21T06:10:42.017Z,58.57
2023-03-21T06:13:05.251Z,60.25
2023-03-21T06:15:30.675Z,61.51
2023-03-21T06:18:02.567Z,60.87
2023-03-21T06:20:25.585Z,61.13
2023-03-21T06:22:52.074Z,61.94
2023-03-21T06:25:14.819Z,62.63
2023-03-21T06:27:37.839Z,62.99
2023-03-21T06:30:03.801Z,63.34
2023-03-21T06:32:33.163Z,61.94
2023-03-21T06:35:06.332Z,60.01
2023-03-21T06:37:30.894Z,58.48
2023-03-21T06:39:55.474Z,54.69
2023-03-21T06:42:19.487Z,53.76
2023-03-21T06:44:43.007Z,54.44
2023-03-21T06:47:09.729Z,54.68
2023-03-21T06:49:32.800Z,51.75
2023-03-21T06:52:03.731Z,49.87
2023-03-21T06:54:27.021Z,51.04
2023-03-21T06:56:55.174Z,52.10
2023-03-21T06:59:23.435Z,52.13
2023-03-21T07:01:54.580Z,50.75
2023-03-21T07:04:18.125Z,48.94
2023-03-21T07:06:42.754Z,50.27
2023-03-21T07:09:07.132Z,52.34
2023-03-21T07:11:30.257Z,52.07
2023-03-21T07:13:53.391Z,52.68
2023-03-21T07:16:18.595Z,54.41
2023-03-21T07:18:42.313Z,55.44
2023-03-21T07:21:06.272Z,55.19
2023-03-21T07:23:29.968Z,54.22
2023-03-21T07:25:53.563Z,53.09
2023-03-21T07:28:17.432Z,52.71
2023-03-21T07:30:40.751Z,51.82
2023-03-21T07:33:04.243Z,53.86
2023-03-21T07:35:27.666Z,53.21
2023-03-21T07:37:51.170Z,51.87
2023-03-21T07:40:14.855Z,50.86
2023-03-21T07:42:39.216Z,49.38
2023-03-21T07:45:02.449Z,47.34
2023-03-21T07:47:30.077Z,45.92
2023-03-21T07:49:52.967Z,44.48
2023-03-21T07:52:19.095Z,42.91
2023-03-21T07:54:44.842Z,41.85
2023-03-21T07:57:07.650Z,39.88
2023-03-21T07:59:30.746Z,38.95
2023-03-21T08:02:17.624Z,37.67
2023-03-21T08:04:47.073Z,36.66
2023-03-21T08:07:16.641Z,39.00
2023-03-21T08:12:31.178Z,39.27
2023-03-21T08:14:54.682Z,39.31
2023-03-21T08:17:21.590Z,39.60
2023-03-21T08:19:47.619Z,39.56
2023-03-21T08:22:11.042Z,40.38
2023-03-21T08:24:34.287Z,42.27
2023-03-21T08:26:57.452Z,44.50
2023-03-21T08:29:21.776Z,44.99
2023-03-21T08:31:45.055Z,46.06
2023-03-21T08:34:08.095Z,47.44
2023-03-21T08:36:32.360Z,46.97
2023-03-21T08:39:04.538Z,48.62
2023-03-21T08:41:27.720Z,49.07
2023-03-21T08:43:50.787Z,50.16
2023-03-21T08:46:16.265Z,51.00
2023-03-21T08:48:39.451Z,49.11
2023-03-21T08:51:02.590Z,48.47
2023-03-21T08:53:25.916Z,48.81
2023-03-21T08:55:49.607Z,45.97
2023-03-21T08:58:12.623Z,46.13
2023-03-21T09:00:35.910Z,46.26
2023-03-21T09:02:59.036Z,45.85
2023-03-21T09:05:23.052Z,46.64
2023-03-21T09:07:46.228Z,46.52
2023-03-21T09:10:21.562Z,47.48
2023-03-21T09:12:47.130Z,47.48
2023-03-21T09:15:12.206Z,48.46
2023-03-21T09:17:44.105Z,49.48
2023-03-21T09:20:11.411Z,49.61
2023-03-21T09:22:35.625Z,49.75
2023-03-21T09:24:59.368Z,50.75
2023-03-21T09:27:23.268Z,50.72
2023-03-21T09:29:46.122Z,50.19
2023-03-21T09:32:10.725Z,50.26
2023-03-21T09:34:33.595Z,51.21
2023-03-21T09:36:57.090Z,51.51
2023-03-21T09:39:20.683Z,49.82
2023-03-21T09:42:17.907Z,49.63
2023-03-21T09:45:08.965Z,50.23
2023-03-21T09:47:38.048Z,51.02
2023-03-21T09:50:18.006Z,49.58
2023-03-21T09:52:50.811Z,49.17
2023-03-21T09:55:26.483Z,48.10
2023-03-21T09:57:57.222Z,46.45
2023-03-21T10:00:53.847Z,47.44
2023-03-21T10:03:37.813Z,46.59
2023-03-21T10:06:16.704Z,45.34
2023-03-21T10:08:43.652Z,46.42
2023-03-21T10:11:30.614Z,47.53
2023-03-21T10:14:00.359Z,47.99
2023-03-21T10:16:32.745Z,49.03
2023-03-21T10:18:57.506Z,49.09
2023-03-21T10:21:51.503Z,49.66
2023-03-21T10:24:07.200Z,49.01
2023-03-21T10:26:30.928Z,48.97
2023-03-21T10:29:00.006Z,48.36
2023-03-21T10:31:28.581Z,45.98
2023-03-21T10:33:54.398Z,45.28
2023-03-21T10:36:22.991Z,45.07
2023-03-21T10:38:50.718Z,44.77
2023-03-21T10:41:13.514Z,45.19
2023-03-21T10:43:39.001Z,44.21
2023-03-21T10:46:11.578Z,43.73
2023-03-21T10:48:40.929Z,43.36
2023-03-21T10:51:08.869Z,43.15
2023-03-21T10:53:39.586Z,43.56
2023-03-21T10:56:06.960Z,43.60
2023-03-21T10:58:35.043Z,44.51
2023-03-21T11:01:02.679Z,44.63
2023-03-21T11:03:37.241Z,44.81
2023-03-21T11:06:08.362Z,45.66
2023-03-21T11:08:37.832Z,46.12
2023-03-21T11:11:12.591Z,44.79
2023-03-21T11:14:08.992Z,44.68
2023-03-21T11:16:41.028Z,44.60
2023-03-21T11:19:14.415Z,44.75
2023-03-21T11:21:38.532Z,47.79
2023-03-21T11:24:03.852Z,47.54
2023-03-21T11:26:31.260Z,48.16
2023-03-21T11:28:55.586Z,48.78
2023-03-21T11:31:18.827Z,46.20
2023-03-21T11:34:01.598Z,44.60
2023-03-21T11:36:32.108Z,46.04
2023-03-21T11:39:02.664Z,44.38
2023-03-21T11:41:34.990Z,44.46
2023-03-21T11:43:59.398Z,44.69
2023-03-21T11:46:31.528Z,44.38
2023-03-21T11:48:56.550Z,44.81
2023-03-21T11:51:26.322Z,42.87
2023-03-21T11:54:17.601Z,43.32
2023-03-21T11:56:52.727Z,44.19
2023-03-21T11:59:41.550Z,43.51
2023-03-21T12:02:26.261Z,43.97
2023-03-21T12:05:04.448Z,43.74
2023-03-21T12:07:32.758Z,44.87
2023-03-21T12:10:34.647Z,44.90
2023-03-21T12:13:25.309Z,43.37
2023-03-21T12:16:03.344Z,42.31
2023-03-21T12:19:08.465Z,40.84
2023-03-21T12:22:11.391Z,41.02
2023-03-21T12:24:49.306Z,39.57
2023-03-21T12:27:40.798Z,39.91
2023-03-21T12:30:28.222Z,39.21
2023-03-21T12:33:04.179Z,39.49
2023-03-21T12:35:48.167Z,38.23
2023-03-21T12:38:25.253Z,38.89
2023-03-21T12:40:59.958Z,40.01
2023-03-21T12:43:42.358Z,40.39
2023-03-21T12:46:28.937Z,40.80
2023-03-21T12:48:54.225Z,41.32
2023-03-21T12:51:32.805Z,42.57
2023-03-21T12:54:23.724Z,42.66
2023-03-21T12:56:53.108Z,42.57
2023-03-21T12:59:50.598Z,42.77
2023-03-21T13:02:16.845Z,42.69
2023-03-21T13:05:04.669Z,42.39
2023-03-21T13:07:31.508Z,42.09
2023-03-21T13:09:55.446Z,41.10
2023-03-21T13:12:51.199Z,39.95
2023-03-21T13:15:27.390Z,39.19
2023-03-21T13:18:05.160Z,40.74
2023-03-21T13:20:53.810Z,40.92
2023-03-21T13:23:19.487Z,40.67
2023-03-21T13:25:47.345Z,41.09
2023-03-21T13:28:29.149Z,40.37
2023-03-21T13:30:52.765Z,39.42
2023-03-21T13:33:21.753Z,39.45
2023-03-21T13:35:45.917Z,39.68
2023-03-21T13:38:29.312Z,39.73
2023-03-21T13:41:18.923Z,40.34
2023-03-21T13:44:03.518Z,39.73
2023-03-21T13:46:26.228Z,40.11
2023-03-21T13:48:59.978Z,40.37
2023-03-21T13:51:29.513Z,39.90
2023-03-21T13:54:34.516Z,40.36
2023-03-21T13:57:01.460Z,39.04
2023-03-21T13:59:39.457Z,38.60
2023-03-21T14:02:34.720Z,39.68
2023-03-21T14:05:20.673Z,38.87
2023-03-21T14:07:47.750Z,40.37
2023-03-21T14:10:53.851Z,41.55
2023-03-21T14:13:22.708Z,40.71
2023-03-21T14:15:56.221Z,40.23
2023-03-21T14:18:52.221Z,41.98
2023-03-21T14:21:23.380Z,41.28
2023-03-21T14:23:47.085Z,40.71
2023-03-21T14:26:12.320Z,42.26
2023-03-21T14:28:36.718Z,41.60
2023-03-21T14:31:00.992Z,41.67
2023-03-21T14:33:30.016Z,41.54
2023-03-21T14:35:58.274Z,42.42
2023-03-21T14:38:27.283Z,42.18
2023-03-21T14:40:53.504Z,42.61
2023-03-21T14:43:18.110Z,42.83
2023-03-21T14:45:41.459Z,42.52
2023-03-21T14:48:08.145Z,43.21
2023-03-21T14:50:38.761Z,43.37
2023-03-21T14:53:01.895Z,42.33
2023-03-21T14:55:24.970Z,41.90
2023-03-21T14:57:51.834Z,41.86
2023-03-21T15:00:29.326Z,42.24
2023-03-21T15:02:53.581Z,42.83
2023-03-21T15:05:30.653Z,42.84
2023-03-21T15:08:18.460Z,43.33
2023-03-21T15:10:42.629Z,43.77
2023-03-21T15:13:18.575Z,43.58
2023-03-21T15:15:42.152Z,44.02
2023-03-21T15:18:07.105Z,43.89
2023-03-21T15:20:37.950Z,43.95
2023-03-21T15:23:14.445Z,44.50
2023-03-21T15:25:38.491Z,44.31
2023-03-21T15:28:02.269Z,44.55
2023-03-21T15:30:28.408Z,44.36
2023-03-21T15:32:51.758Z,44.25
2023-03-21T15:35:21.923Z,44.27
2023-03-21T15:37:56.949Z,43.43
2023-03-21T15:40:24.805Z,43.02
2023-03-21T15:42:48.289Z,42.70
2023-03-21T15:45:22.329Z,43.00
2023-03-21T15:48:00.180Z,43.32
2023-03-21T15:50:33.145Z,43.76
2023-03-21T15:53:00.801Z,44.27
2023-03-21T15:55:28.302Z,44.81
2023-03-21T15:57:51.301Z,45.00
2023-03-21T16:00:19.856Z,45.79
2023-03-21T16:02:43.532Z,46.50
2023-03-21T16:05:26.591Z,46.45
2023-03-21T16:07:49.862Z,46.88
2023-03-21T16:10:28.242Z,46.73
2023-03-21T16:12:51.312Z,46.98
2023-03-21T16:15:14.127Z,46.97
2023-03-21T16:17:37.996Z,47.03
2023-03-21T16:20:01.340Z,47.73
2023-03-21T16:22:24.093Z,48.34
2023-03-21T16:24:47.073Z,48.28
2023-03-21T16:27:12.009Z,48.73
2023-03-21T16:29:34.591Z,49.06
2023-03-21T16:31:57.535Z,49.60
2023-03-21T16:34:20.678Z,49.87
2023-03-21T16:36:44.059Z,50.38
2023-03-21T16:39:21.691Z,50.82
2023-03-21T16:41:44.829Z,51.04
2023-03-21T16:44:07.655Z,51.32
2023-03-21T16:46:31.076Z,51.98
2023-03-21T16:48:56.953Z,51.98
2023-03-21T16:51:31.700Z,52.55
2023-03-21T16:53:54.348Z,52.57
2023-03-21T16:56:50.681Z,53.40
2023-03-21T16:59:13.994Z,52.95
2023-03-21T17:01:40.369Z,53.14
2023-03-21T17:04:03.368Z,53.97
2023-03-21T17:06:28.861Z,54.22
2023-03-21T17:08:52.691Z,54.43
2023-03-21T17:11:20.081Z,54.76
2023-03-21T17:13:46.756Z,55.25
2023-03-21T17:16:14.755Z,55.24
2023-03-21T17:18:37.635Z,55.52
2023-03-21T17:21:00.856Z,55.48
2023-03-21T17:23:24.000Z,55.81
2023-03-21T17:25:46.823Z,56.02
2023-03-21T17:28:09.994Z,56.04
2023-03-21T17:30:35.122Z,56.58
2023-03-21T17:32:59.063Z,56.23
2023-03-21T17:35:23.789Z,56.67
2023-03-21T17:37:58.751Z,56.65
2023-03-21T17:40:24.763Z,56.52
2023-03-21T17:42:48.031Z,56.52
2023-03-21T17:45:11.176Z,57.07
2023-03-21T17:47:35.716Z,56.99
2023-03-21T17:49:58.917Z,57.36
2023-03-21T17:52:22.445Z,58.08
2023-03-21T17:54:46.852Z,58.18
2023-03-21T17:57:13.186Z,58.34
2023-03-21T17:59:36.218Z,58.30
2023-03-21T18:01:59.477Z,58.37
2023-03-21T18:04:22.829Z,58.90
2023-03-21T18:06:45.887Z,59.28
2023-03-21T18:09:11.986Z,59.14
2023-03-21T18:11:35.541Z,59.48
2023-03-21T18:14:14.355Z,59.56
2023-03-21T18:16:39.716Z,59.52
2023-03-21T18:19:03.639Z,59.47
2023-03-21T18:21:32.129Z,59.49
2023-03-21T18:23:55.836Z,59.71
2023-03-21T18:26:24.036Z,59.10
2023-03-21T18:29:34.262Z,59.22
2023-03-21T18:31:32.708Z,59.57
2023-03-21T18:33:55.767Z,59.69
2023-03-21T18:36:25.397Z,59.99
2023-03-21T18:38:49.476Z,60.11
2023-03-21T18:41:13.268Z,60.35
2023-03-21T18:44:02.787Z,60.43
2023-03-21T18:46:20.637Z,60.73
2023-03-21T18:48:45.240Z,60.90
2023-03-21T18:51:10.180Z,61.09
2023-03-21T18:53:33.403Z,61.29
2023-03-21T18:55:57.645Z,61.53
2023-03-21T18:58:23.081Z,61.69
2023-03-21T19:00:46.927Z,61.83
2023-03-21T19:03:22.180Z,61.68
2023-03-21T19:05:52.616Z,61.48
2023-03-21T19:08:16.573Z,61.31
2023-03-21T19:10:41.374Z,61.26
2023-03-21T19:13:04.960Z,61.98
2023-03-21T19:15:27.850Z,62.24
2023-03-21T19:20:36.573Z,62.27
2023-03-21T19:22:59.529Z,62.45
2023-03-21T19:25:22.301Z,62.20
2023-03-21T19:27:45.656Z,62.31
2023-03-21T19:30:15.854Z,62.53
2023-03-21T19:32:39.418Z,62.12
2023-03-21T19:35:03.358Z,62.15
2023-03-21T19:37:27.321Z,62.65
2023-03-21T19:39:51.266Z,62.50
2023-03-21T19:42:17.107Z,62.81
2023-03-21T19:44:40.656Z,62.54
2023-03-21T19:47:03.828Z,62.97
2023-03-21T19:49:48.567Z,62.73
2023-03-21T19:52:10.846Z,62.76
2023-03-21T19:54:37.570Z,62.97
2023-03-21T19:57:01.953Z,63.27
2023-03-21T19:59:25.207Z,62.70
2023-03-21T20:01:49.508Z,62.99
2023-03-21T20:04:12.921Z,62.64
2023-03-21T20:06:36.558Z,62.82
2023-03-21T20:11:43.287Z,62.90
2023-03-21T20:14:06.436Z,62.95
2023-03-21T20:16:35.081Z,63.03
2023-03-21T20:18:59.599Z,62.93
2023-03-21T20:21:25.789Z,63.00
2023-03-21T20:23:51.976Z,63.06
2023-03-21T20:26:15.704Z,63.10
2023-03-21T20:28:39.701Z,63.56
2023-03-21T20:31:02.726Z,63.96
2023-03-21T20:33:26.917Z,64.25
2023-03-21T20:38:39.593Z,64.42
2023-03-21T20:41:05.594Z,64.49
2023-03-21T20:46:15.780Z,64.88
2023-03-21T20:48:39.015Z,64.39
2023-03-21T20:52:00.226Z,64.86
2023-03-21T20:53:54.063Z,64.86
2023-03-21T20:56:17.567Z,64.48
2023-03-21T20:59:08.618Z,64.70
2023-03-21T21:01:24.011Z,64.48
2023-03-21T21:03:49.614Z,64.62
2023-03-21T21:06:18.014Z,65.06
2023-03-21T21:08:41.877Z,64.87
2023-03-21T21:13:48.439Z,64.62
2023-03-21T21:16:12.073Z,64.80
2023-03-21T21:18:35.155Z,64.69
2023-03-21T21:21:05.256Z,64.39
2023-03-21T21:23:29.466Z,64.41
2023-03-21T21:25:53.735Z,64.83
2023-03-21T21:28:17.962Z,64.60
2023-03-21T21:30:41.614Z,64.55
2023-03-21T21:33:05.509Z,64.92
2023-03-21T21:35:28.492Z,65.01
2023-03-21T21:37:52.228Z,64.71
2023-03-21T21:40:20.309Z,64.73
2023-03-21T21:42:44.138Z,64.88
2023-03-21T21:45:07.480Z,64.77
2023-03-21T21:47:30.322Z,65.37
2023-03-21T21:49:53.100Z,65.50
2023-03-21T21:52:24.139Z,65.52
2023-03-21T21:54:48.973Z,65.67
2023-03-21T21:57:12.119Z,65.75
2023-03-21T21:59:35.127Z,65.80
2023-03-21T22:01:58.630Z,66.02
2023-03-21T22:04:27.893Z,65.97
2023-03-21T22:06:51.365Z,65.80
2023-03-21T22:09:25.704Z,65.85
2023-03-21T22:11:49.057Z,65.86
2023-03-21T22:14:11.956Z,65.95
2023-03-21T22:16:35.025Z,66.21
2023-03-21T22:18:58.000Z,66.45
2023-03-21T22:21:21.506Z,66.91
2023-03-21T22:23:44.315Z,66.63
2023-03-21T22:26:08.267Z,66.63
2023-03-21T22:28:32.118Z,67.07
2023-03-21T22:30:56.366Z,67.09
2023-03-21T22:33:22.393Z,66.43
2023-03-21T22:35:45.848Z,66.69
2023-03-21T22:38:08.717Z,67.04
2023-03-21T22:40:31.500Z,67.33
2023-03-21T22:42:54.130Z,68.16
2023-03-21T22:45:17.375Z,68.45
2023-03-21T22:47:40.572Z,68.31
2023-03-21T22:50:04.559Z,68.29
2023-03-21T22:52:27.768Z,68.49
2023-03-21T22:54:51.335Z,68.61
2023-03-21T22:57:14.284Z,68.31
2023-03-21T22:59:37.353Z,68.57
2023-03-21T23:02:00.827Z,68.80
2023-03-21T23:04:24.868Z,68.99
2023-03-21T23:06:48.141Z,68.20
2023-03-21T23:09:10.947Z,68.54
2023-03-21T23:11:33.966Z,68.47
2023-03-21T23:14:07.308Z,68.36
2023-03-21T23:16:31.691Z,68.38
2023-03-21T23:18:54.900Z,67.95
2023-03-21T23:21:18.855Z,67.62
2023-03-21T23:23:43.918Z,67.55
2023-03-21T23:26:07.006Z,67.68
2023-03-21T23:28:29.813Z,67.38
2023-03-21T23:30:53.088Z,67.73
2023-03-21T23:33:16.124Z,67.57
2023-03-21T23:35:39.503Z,67.88
2023-03-21T23:38:02.708Z,67.39
2023-03-21T23:40:25.537Z,66.92
2023-03-21T23:42:48.666Z,67.26
2023-03-21T23:45:12.994Z,67.01
2023-03-21T23:47:35.756Z,66.88
2023-03-21T23:49:58.446Z,67.14
2023-03-21T23:52:21.489Z,66.99
2023-03-21T23:54:44.908Z,67.24
2023-03-21T23:57:07.947Z,67.82
2023-03-21T23:59:30.868Z,68.37
